sensor_id;sensor_type;location;lat;lon;timestamp;pressure;altitude;pressure_sealevel;temperature;humidity
59608;BME280;45426;44.726;10.390;2023-03-16T00:00:35;100749.81;;;3.98;100.00
59608;BME280;45426;44.726;10.390;2023-03-16T00:03:01;100741.31;;;3.85;100.00
59608;BME280;45426;44.726;10.390;2023-03-16T00:05:26;100744.41;;;3.63;100.00
59608;BME280;45426;44.726;10.390;2023-03-16T00:07:52;100741.75;;;3.98;100.00
59608;BME280;45426;44.726;10.390;2023-03-16T00:10:17;100744.88;;;4.15;100.00
59608;BME280;45426;44.726;10.390;2023-03-16T00:12:43;100744.50;;;3.43;100.00
59608;BME280;45426;44.726;10.390;2023-03-16T00:15:10;100748.84;;;3.34;100.00
59608;BME280;45426;44.726;10.390;2023-03-16T00:17:36;100754.19;;;3.39;100.00
59608;BME280;45426;44.726;10.390;2023-03-16T00:20:02;100757.91;;;3.48;100.00
59608;BME280;45426;44.726;10.390;2023-03-16T00:22:30;100755.00;;;3.39;100.00
59608;BME280;45426;44.726;10.390;2023-03-16T00:24:56;100763.56;;;3.41;100.00
59608;BME280;45426;44.726;10.390;2023-03-16T00:27:24;100763.28;;;3.93;100.00
59608;BME280;45426;44.726;10.390;2023-03-16T00:29:51;100757.84;;;4.03;100.00
59608;BME280;45426;44.726;10.390;2023-03-16T00:32:23;100761.16;;;4.29;100.00
59608;BME280;45426;44.726;10.390;2023-03-16T00:34:49;100753.94;;;4.54;100.00
59608;BME280;45426;44.726;10.390;2023-03-16T00:37:17;100767.56;;;4.33;100.00
59608;BME280;45426;44.726;10.390;2023-03-16T00:39:44;100761.78;;;4.16;100.00
59608;BME280;45426;44.726;10.390;2023-03-16T00:42:12;100770.88;;;3.85;100.00
59608;BME280;45426;44.726;10.390;2023-03-16T00:44:38;100769.66;;;4.02;100.00
59608;BME280;45426;44.726;10.390;2023-03-16T00:47:06;100767.09;;;3.86;100.00
59608;BME280;45426;44.726;10.390;2023-03-16T00:49:33;100764.13;;;4.27;100.00
59608;BME280;45426;44.726;10.390;2023-03-16T00:52:03;100770.00;;;3.95;100.00
59608;BME280;45426;44.726;10.390;2023-03-16T00:54:30;100759.16;;;3.66;100.00
59608;BME280;45426;44.726;10.390;2023-03-16T00:56:57;100764.38;;;3.42;100.00
59608;BME280;45426;44.726;10.390;2023-03-16T00:59:23;100753.03;;;3.55;100.00
59608;BME280;45426;44.726;10.390;2023-03-16T01:01:51;100757.38;;;3.46;100.00
59608;BME280;45426;44.726;10.390;2023-03-16T01:04:17;100750.72;;;3.83;100.00
59608;BME280;45426;44.726;10.390;2023-03-16T01:06:43;100743.81;;;3.66;100.00
59608;BME280;45426;44.726;10.390;2023-03-16T01:09:09;100749.88;;;3.43;100.00
59608;BME280;45426;44.726;10.390;2023-03-16T01:11:35;100746.50;;;3.66;100.00
59608;BME280;45426;44.726;10.390;2023-03-16T01:14:01;100757.06;;;4.02;100.00
59608;BME280;45426;44.726;10.390;2023-03-16T01:16:27;100747.94;;;4.62;100.00
59608;BME280;45426;44.726;10.390;2023-03-16T01:18:52;100737.66;;;5.17;100.00
59608;BME280;45426;44.726;10.390;2023-03-16T01:21:19;100739.13;;;5.29;100.00
59608;BME280;45426;44.726;10.390;2023-03-16T01:23:46;100735.59;;;5.09;100.00
59608;BME280;45426;44.726;10.390;2023-03-16T01:26:12;100740.25;;;4.79;100.00
59608;BME280;45426;44.726;10.390;2023-03-16T01:28:39;100738.47;;;4.70;100.00
59608;BME280;45426;44.726;10.390;2023-03-16T01:31:08;100742.94;;;4.21;100.00
59608;BME280;45426;44.726;10.390;2023-03-16T01:33:34;100733.34;;;4.68;100.00
59608;BME280;45426;44.726;10.390;2023-03-16T01:36:07;100740.88;;;4.07;100.00
59608;BME280;45426;44.726;10.390;2023-03-16T01:38:33;100743.53;;;4.71;100.00
59608;BME280;45426;44.726;10.390;2023-03-16T01:40:59;100737.00;;;3.84;100.00
59608;BME280;45426;44.726;10.390;2023-03-16T01:43:26;100734.81;;;3.92;100.00
59608;BME280;45426;44.726;10.390;2023-03-16T01:46:14;100729.34;;;4.36;100.00
59608;BME280;45426;44.726;10.390;2023-03-16T01:54:05;100737.63;;;4.11;100.00
59608;BME280;45426;44.726;10.390;2023-03-16T01:56:46;100742.22;;;4.69;100.00
59608;BME280;45426;44.726;10.390;2023-03-16T01:59:15;100749.66;;;4.18;100.00
59608;BME280;45426;44.726;10.390;2023-03-16T02:01:41;100751.13;;;4.40;100.00
59608;BME280;45426;44.726;10.390;2023-03-16T02:04:45;100746.47;;;4.75;100.00
59608;BME280;45426;44.726;10.390;2023-03-16T02:07:13;100742.91;;;4.55;100.00
59608;BME280;45426;44.726;10.390;2023-03-16T02:09:44;100752.53;;;4.32;100.00
59608;BME280;45426;44.726;10.390;2023-03-16T02:12:11;100743.78;;;4.11;100.00
59608;BME280;45426;44.726;10.390;2023-03-16T02:14:46;100743.38;;;3.49;100.00
59608;BME280;45426;44.726;10.390;2023-03-16T02:17:13;100743.03;;;3.11;100.00
59608;BME280;45426;44.726;10.390;2023-03-16T02:22:45;100743.94;;;3.91;100.00
59608;BME280;45426;44.726;10.390;2023-03-16T02:25:13;100736.75;;;3.81;100.00
59608;BME280;45426;44.726;10.390;2023-03-16T02:27:47;100742.28;;;3.55;100.00
59608;BME280;45426;44.726;10.390;2023-03-16T02:30:18;100744.06;;;3.20;100.00
59608;BME280;45426;44.726;10.390;2023-03-16T02:32:45;100743.09;;;2.80;100.00
59608;BME280;45426;44.726;10.390;2023-03-16T02:35:12;100739.06;;;3.53;100.00
59608;BME280;45426;44.726;10.390;2023-03-16T02:37:38;100737.75;;;3.50;100.00
59608;BME280;45426;44.726;10.390;2023-03-16T02:40:25;100737.66;;;3.11;100.00
59608;BME280;45426;44.726;10.390;2023-03-16T02:43:00;100731.56;;;3.50;100.00
59608;BME280;45426;44.726;10.390;2023-03-16T02:45:56;100735.06;;;3.95;100.00
59608;BME280;45426;44.726;10.390;2023-03-16T02:48:54;100745.38;;;3.28;100.00
59608;BME280;45426;44.726;10.390;2023-03-16T02:51:22;100741.19;;;3.61;100.00
59608;BME280;45426;44.726;10.390;2023-03-16T02:53:47;100743.03;;;3.11;100.00
59608;BME280;45426;44.726;10.390;2023-03-16T02:56:13;100750.94;;;2.00;100.00
59608;BME280;45426;44.726;10.390;2023-03-16T02:58:38;100750.66;;;1.96;100.00
59608;BME280;45426;44.726;10.390;2023-03-16T03:01:04;100747.72;;;1.98;100.00
59608;BME280;45426;44.726;10.390;2023-03-16T03:03:29;100749.06;;;2.10;100.00
59608;BME280;45426;44.726;10.390;2023-03-16T03:05:58;100751.75;;;2.00;100.00
59608;BME280;45426;44.726;10.390;2023-03-16T03:08:23;100748.47;;;2.80;100.00
59608;BME280;45426;44.726;10.390;2023-03-16T03:10:49;100750.66;;;2.63;100.00
59608;BME280;45426;44.726;10.390;2023-03-16T03:13:16;100751.19;;;2.70;100.00
59608;BME280;45426;44.726;10.390;2023-03-16T03:15:42;100748.81;;;2.27;100.00
59608;BME280;45426;44.726;10.390;2023-03-16T03:18:07;100751.22;;;2.34;100.00
59608;BME280;45426;44.726;10.390;2023-03-16T03:20:33;100756.56;;;2.44;100.00
59608;BME280;45426;44.726;10.390;2023-03-16T03:22:58;100762.72;;;2.65;100.00
59608;BME280;45426;44.726;10.390;2023-03-16T03:25:24;100764.88;;;2.63;100.00
59608;BME280;45426;44.726;10.390;2023-03-16T03:27:50;100758.44;;;2.64;100.00
59608;BME280;45426;44.726;10.390;2023-03-16T03:30:20;100759.25;;;2.44;100.00
59608;BME280;45426;44.726;10.390;2023-03-16T03:32:46;100776.41;;;2.59;100.00
59608;BME280;45426;44.726;10.390;2023-03-16T03:35:13;100772.56;;;3.06;100.00
59608;BME280;45426;44.726;10.390;2023-03-16T03:37:39;100780.41;;;2.87;100.00
59608;BME280;45426;44.726;10.390;2023-03-16T03:40:07;100786.03;;;2.80;100.00
59608;BME280;45426;44.726;10.390;2023-03-16T03:42:34;100780.41;;;2.77;100.00
59608;BME280;45426;44.726;10.390;2023-03-16T03:44:59;100789.78;;;3.00;100.00
59608;BME280;45426;44.726;10.390;2023-03-16T03:47:25;100787.63;;;2.91;100.00
59608;BME280;45426;44.726;10.390;2023-03-16T03:49:50;100785.47;;;2.94;100.00
59608;BME280;45426;44.726;10.390;2023-03-16T03:52:16;100792.50;;;2.79;100.00
59608;BME280;45426;44.726;10.390;2023-03-16T03:54:41;100799.16;;;2.97;100.00
59608;BME280;45426;44.726;10.390;2023-03-16T03:57:07;100809.69;;;2.68;100.00
59608;BME280;45426;44.726;10.390;2023-03-16T03:59:32;100805.63;;;2.76;100.00
59608;BME280;45426;44.726;10.390;2023-03-16T04:01:59;100801.63;;;2.68;100.00
59608;BME280;45426;44.726;10.390;2023-03-16T04:04:24;100811.22;;;3.10;100.00
59608;BME280;45426;44.726;10.390;2023-03-16T04:06:50;100818.75;;;2.98;100.00
59608;BME280;45426;44.726;10.390;2023-03-16T04:09:16;100814.59;;;3.46;100.00
59608;BME280;45426;44.726;10.390;2023-03-16T04:11:41;100813.22;;;3.54;100.00
59608;BME280;45426;44.726;10.390;2023-03-16T04:14:06;100824.63;;;3.20;100.00
59608;BME280;45426;44.726;10.390;2023-03-16T04:16:32;100830.25;;;3.24;100.00
59608;BME280;45426;44.726;10.390;2023-03-16T04:18:58;100828.09;;;3.16;100.00
59608;BME280;45426;44.726;10.390;2023-03-16T04:21:24;100835.09;;;3.06;100.00
59608;BME280;45426;44.726;10.390;2023-03-16T04:23:50;100839.72;;;2.75;100.00
59608;BME280;45426;44.726;10.390;2023-03-16T04:26:19;100837.81;;;2.65;100.00
59608;BME280;45426;44.726;10.390;2023-03-16T04:28:45;100833.78;;;2.17;100.00
59608;BME280;45426;44.726;10.390;2023-03-16T04:31:11;100829.47;;;2.00;100.00
59608;BME280;45426;44.726;10.390;2023-03-16T04:33:38;100843.44;;;2.23;100.00
59608;BME280;45426;44.726;10.390;2023-03-16T04:36:05;100848.28;;;2.31;100.00
59608;BME280;45426;44.726;10.390;2023-03-16T04:38:31;100836.50;;;2.42;100.00
59608;BME280;45426;44.726;10.390;2023-03-16T04:40:58;100841.88;;;2.32;100.00
59608;BME280;45426;44.726;10.390;2023-03-16T04:43:24;100841.31;;;2.35;100.00
59608;BME280;45426;44.726;10.390;2023-03-16T04:45:50;100851.47;;;2.28;100.00
59608;BME280;45426;44.726;10.390;2023-03-16T04:48:15;100849.88;;;2.37;100.00
59608;BME280;45426;44.726;10.390;2023-03-16T04:50:40;100848.78;;;2.12;100.00
59608;BME280;45426;44.726;10.390;2023-03-16T04:53:06;100844.28;;;2.28;100.00
59608;BME280;45426;44.726;10.390;2023-03-16T04:55:31;100847.47;;;2.30;100.00
59608;BME280;45426;44.726;10.390;2023-03-16T04:57:57;100848.81;;;2.18;100.00
59608;BME280;45426;44.726;10.390;2023-03-16T05:00:23;100846.09;;;2.07;100.00
59608;BME280;45426;44.726;10.390;2023-03-16T05:02:49;100843.94;;;2.09;100.00
59608;BME280;45426;44.726;10.390;2023-03-16T05:05:16;100841.59;;;2.39;100.00
59608;BME280;45426;44.726;10.390;2023-03-16T05:07:43;100850.72;;;2.38;100.00
59608;BME280;45426;44.726;10.390;2023-03-16T05:10:13;100850.41;;;2.24;100.00
59608;BME280;45426;44.726;10.390;2023-03-16T05:12:39;100850.34;;;1.88;100.00
59608;BME280;45426;44.726;10.390;2023-03-16T05:15:05;100847.06;;;1.75;100.00
59608;BME280;45426;44.726;10.390;2023-03-16T05:17:31;100848.09;;;1.59;100.00
59608;BME280;45426;44.726;10.390;2023-03-16T05:19:57;100857.63;;;1.40;100.00
59608;BME280;45426;44.726;10.390;2023-03-16T05:22:23;100855.63;;;1.78;100.00
59608;BME280;45426;44.726;10.390;2023-03-16T05:24:48;100859.94;;;1.79;100.00
59608;BME280;45426;44.726;10.390;2023-03-16T05:27:14;100863.84;;;2.34;100.00
59608;BME280;45426;44.726;10.390;2023-03-16T05:29:40;100867.63;;;2.84;100.00
59608;BME280;45426;44.726;10.390;2023-03-16T05:32:10;100862.22;;;2.23;100.00
59608;BME280;45426;44.726;10.390;2023-03-16T05:34:36;100866.19;;;2.15;100.00
59608;BME280;45426;44.726;10.390;2023-03-16T05:37:01;100868.59;;;2.06;100.00
59608;BME280;45426;44.726;10.390;2023-03-16T05:39:28;100878.31;;;3.10;100.00
59608;BME280;45426;44.726;10.390;2023-03-16T05:41:55;100884.75;;;2.37;100.00
59608;BME280;45426;44.726;10.390;2023-03-16T05:44:21;100885.28;;;2.34;100.00
59608;BME280;45426;44.726;10.390;2023-03-16T05:46:47;100879.25;;;1.86;100.00
59608;BME280;45426;44.726;10.390;2023-03-16T05:49:13;100881.72;;;1.98;100.00
59608;BME280;45426;44.726;10.390;2023-03-16T05:51:38;100875.34;;;2.29;100.00
59608;BME280;45426;44.726;10.390;2023-03-16T05:54:03;100880.16;;;2.12;100.00
59608;BME280;45426;44.726;10.390;2023-03-16T05:56:29;100876.16;;;2.25;100.00
59608;BME280;45426;44.726;10.390;2023-03-16T05:58:55;100883.38;;;2.14;100.00
59608;BME280;45426;44.726;10.390;2023-03-16T06:01:21;100887.41;;;2.22;100.00
59608;BME280;45426;44.726;10.390;2023-03-16T06:03:48;100886.63;;;2.31;100.00
59608;BME280;45426;44.726;10.390;2023-03-16T06:06:15;100879.38;;;2.37;100.00
59608;BME280;45426;44.726;10.390;2023-03-16T06:08:41;100891.78;;;2.79;100.00
59608;BME280;45426;44.726;10.390;2023-03-16T06:11:07;100893.91;;;2.87;100.00
59608;BME280;45426;44.726;10.390;2023-03-16T06:13:32;100895.78;;;2.97;100.00
59608;BME280;45426;44.726;10.390;2023-03-16T06:15:58;100899.78;;;3.36;100.00
59608;BME280;45426;44.726;10.390;2023-03-16T06:18:23;100909.19;;;2.77;100.00
59608;BME280;45426;44.726;10.390;2023-03-16T06:20:48;100905.81;;;3.87;100.00
59608;BME280;45426;44.726;10.390;2023-03-16T06:23:14;100906.53;;;3.98;100.00
59608;BME280;45426;44.726;10.390;2023-03-16T06:25:39;100911.09;;;4.53;100.00
59608;BME280;45426;44.726;10.390;2023-03-16T06:28:06;100906.69;;;7.12;100.00
59608;BME280;45426;44.726;10.390;2023-03-16T06:30:31;100906.16;;;11.57;100.00
59608;BME280;45426;44.726;10.390;2023-03-16T06:32:56;100898.66;;;16.17;100.00
59608;BME280;45426;44.726;10.390;2023-03-16T06:35:24;100905.75;;;16.02;100.00
59608;BME280;45426;44.726;10.390;2023-03-16T06:37:50;100908.41;;;16.92;100.00
59608;BME280;45426;44.726;10.390;2023-03-16T06:40:15;100915.78;;;17.31;86.69
59608;BME280;45426;44.726;10.390;2023-03-16T06:42:41;100931.16;;;14.63;100.00
59608;BME280;45426;44.726;10.390;2023-03-16T06:45:08;100920.50;;;18.07;85.36
59608;BME280;45426;44.726;10.390;2023-03-16T06:47:34;100933.44;;;18.63;84.10
59608;BME280;45426;44.726;10.390;2023-03-16T06:49:59;100930.50;;;19.61;74.15
59608;BME280;45426;44.726;10.390;2023-03-16T06:52:25;100936.97;;;18.94;65.83
59608;BME280;45426;44.726;10.390;2023-03-16T06:54:50;100942.38;;;18.87;59.50
59608;BME280;45426;44.726;10.390;2023-03-16T06:57:16;100940.41;;;19.69;62.72
59608;BME280;45426;44.726;10.390;2023-03-16T06:59:41;100953.94;;;18.69;82.93
59608;BME280;45426;44.726;10.390;2023-03-16T07:02:10;100953.13;;;17.58;100.00
59608;BME280;45426;44.726;10.390;2023-03-16T07:04:37;100963.25;;;18.57;100.00
59608;BME280;45426;44.726;10.390;2023-03-16T07:07:03;100946.34;;;21.86;74.43
59608;BME280;45426;44.726;10.390;2023-03-16T07:09:28;100960.34;;;23.41;61.96
59608;BME280;45426;44.726;10.390;2023-03-16T07:11:53;100969.75;;;17.89;82.37
59608;BME280;45426;44.726;10.390;2023-03-16T07:14:19;100961.34;;;22.00;74.28
59608;BME280;45426;44.726;10.390;2023-03-16T07:16:45;100959.66;;;23.75;58.16
59608;BME280;45426;44.726;10.390;2023-03-16T07:19:10;100967.25;;;22.02;57.81
59608;BME280;45426;44.726;10.390;2023-03-16T07:21:36;100975.19;;;21.49;62.88
59608;BME280;45426;44.726;10.390;2023-03-16T07:24:06;100973.22;;;24.49;51.77
59608;BME280;45426;44.726;10.390;2023-03-16T07:26:32;100973.63;;;25.13;51.31
59608;BME280;45426;44.726;10.390;2023-03-16T07:28:57;100986.84;;;22.72;50.58
59608;BME280;45426;44.726;10.390;2023-03-16T07:31:23;100984.59;;;22.42;54.73
59608;BME280;45426;44.726;10.390;2023-03-16T07:33:49;100971.22;;;24.53;55.70
59608;BME280;45426;44.726;10.390;2023-03-16T07:36:15;100992.19;;;24.20;52.43
59608;BME280;45426;44.726;10.390;2023-03-16T07:38:42;101001.53;;;23.95;55.27
59608;BME280;45426;44.726;10.390;2023-03-16T07:41:07;100999.88;;;22.82;81.91
59608;BME280;45426;44.726;10.390;2023-03-16T07:43:33;101006.13;;;22.97;82.69
59608;BME280;45426;44.726;10.390;2023-03-16T07:45:59;101011.16;;;23.24;79.65
59608;BME280;45426;44.726;10.390;2023-03-16T07:48:26;101021.38;;;21.52;96.40
59608;BME280;45426;44.726;10.390;2023-03-16T07:50:51;101010.09;;;24.88;67.34
59608;BME280;45426;44.726;10.390;2023-03-16T07:53:18;101017.44;;;21.79;97.00
59608;BME280;45426;44.726;10.390;2023-03-16T07:55:44;101008.19;;;24.81;83.78
59608;BME280;45426;44.726;10.390;2023-03-16T07:58:11;101010.06;;;23.11;74.84
59608;BME280;45426;44.726;10.390;2023-03-16T08:00:37;101005.66;;;25.21;63.00
59608;BME280;45426;44.726;10.390;2023-03-16T08:03:03;101013.97;;;23.17;75.93
59608;BME280;45426;44.726;10.390;2023-03-16T08:05:28;101026.94;;;19.57;96.40
59608;BME280;45426;44.726;10.390;2023-03-16T08:07:57;101028.13;;;21.98;82.44
59608;BME280;45426;44.726;10.390;2023-03-16T08:10:23;101028.09;;;21.77;86.18
59608;BME280;45426;44.726;10.390;2023-03-16T08:12:49;101017.50;;;24.67;74.02
59608;BME280;45426;44.726;10.390;2023-03-16T08:15:15;101036.00;;;22.36;74.12
59608;BME280;45426;44.726;10.390;2023-03-16T08:17:41;101045.50;;;18.93;100.00
59608;BME280;45426;44.726;10.390;2023-03-16T08:20:09;101042.78;;;16.53;100.00
59608;BME280;45426;44.726;10.390;2023-03-16T08:22:39;101050.50;;;16.47;100.00
59608;BME280;45426;44.726;10.390;2023-03-16T08:25:06;101045.53;;;16.53;100.00
59608;BME280;45426;44.726;10.390;2023-03-16T08:27:35;101056.78;;;15.24;100.00
59608;BME280;45426;44.726;10.390;2023-03-16T08:30:06;101043.03;;;17.38;100.00
59608;BME280;45426;44.726;10.390;2023-03-16T08:32:32;101056.16;;;15.03;100.00
59608;BME280;45426;44.726;10.390;2023-03-16T08:34:57;101060.56;;;15.20;100.00
59608;BME280;45426;44.726;10.390;2023-03-16T08:37:25;101053.53;;;16.42;100.00
59608;BME280;45426;44.726;10.390;2023-03-16T08:39:51;101051.72;;;17.63;100.00
59608;BME280;45426;44.726;10.390;2023-03-16T08:42:17;101064.06;;;17.31;100.00
59608;BME280;45426;44.726;10.390;2023-03-16T08:44:44;101064.88;;;15.49;100.00
59608;BME280;45426;44.726;10.390;2023-03-16T08:47:09;101071.94;;;16.10;100.00
59608;BME280;45426;44.726;10.390;2023-03-16T08:49:36;101068.97;;;16.66;100.00
59608;BME280;45426;44.726;10.390;2023-03-16T08:52:02;101075.34;;;15.31;100.00
59608;BME280;45426;44.726;10.390;2023-03-16T08:54:29;101073.53;;;16.27;100.00
59608;BME280;45426;44.726;10.390;2023-03-16T08:56:56;101080.63;;;18.23;100.00
59608;BME280;45426;44.726;10.390;2023-03-16T08:59:22;101072.75;;;21.79;100.00
59608;BME280;45426;44.726;10.390;2023-03-16T09:01:47;101068.03;;;21.79;100.00
59608;BME280;45426;44.726;10.390;2023-03-16T09:04:13;101070.41;;;22.35;100.00
59608;BME280;45426;44.726;10.390;2023-03-16T09:06:39;101077.31;;;21.21;97.54
59608;BME280;45426;44.726;10.390;2023-03-16T09:09:04;101078.91;;;21.22;100.00
59608;BME280;45426;44.726;10.390;2023-03-16T09:11:29;101076.09;;;20.41;100.00
59608;BME280;45426;44.726;10.390;2023-03-16T09:13:58;101072.78;;;22.33;100.00
59608;BME280;45426;44.726;10.390;2023-03-16T09:16:24;101082.50;;;23.87;87.86
59608;BME280;45426;44.726;10.390;2023-03-16T09:18:53;101085.44;;;22.26;84.89
59608;BME280;45426;44.726;10.390;2023-03-16T09:21:20;101086.84;;;23.84;91.39
59608;BME280;45426;44.726;10.390;2023-03-16T09:23:45;101090.47;;;21.49;100.00
59608;BME280;45426;44.726;10.390;2023-03-16T09:26:12;101098.00;;;19.75;91.52
59608;BME280;45426;44.726;10.390;2023-03-16T09:28:40;101088.19;;;22.48;74.10
59608;BME280;45426;44.726;10.390;2023-03-16T09:31:06;101089.13;;;20.41;87.30
59608;BME280;45426;44.726;10.390;2023-03-16T09:33:34;101093.13;;;18.70;100.00
59608;BME280;45426;44.726;10.390;2023-03-16T09:36:00;101094.63;;;16.74;100.00
59608;BME280;45426;44.726;10.390;2023-03-16T09:38:26;101096.59;;;17.29;100.00
59608;BME280;45426;44.726;10.390;2023-03-16T09:41:15;101099.47;;;18.21;100.00
59608;BME280;45426;44.726;10.390;2023-03-16T09:44:03;101096.00;;;17.19;100.00
59608;BME280;45426;44.726;10.390;2023-03-16T09:46:40;101105.19;;;18.35;100.00
59608;BME280;45426;44.726;10.390;2023-03-16T09:49:09;101100.16;;;16.94;100.00
59608;BME280;45426;44.726;10.390;2023-03-16T09:51:42;101103.06;;;16.49;100.00
59608;BME280;45426;44.726;10.390;2023-03-16T09:54:19;101100.13;;;17.91;100.00
59608;BME280;45426;44.726;10.390;2023-03-16T09:56:47;101103.69;;;16.27;100.00
59608;BME280;45426;44.726;10.390;2023-03-16T09:59:14;101105.78;;;17.79;100.00
59608;BME280;45426;44.726;10.390;2023-03-16T10:01:49;101108.03;;;16.28;100.00
59608;BME280;45426;44.726;10.390;2023-03-16T10:07:08;101105.97;;;17.08;100.00
59608;BME280;45426;44.726;10.390;2023-03-16T10:12:41;101109.25;;;16.46;100.00
59608;BME280;45426;44.726;10.390;2023-03-16T10:15:22;101114.75;;;16.30;100.00
59608;BME280;45426;44.726;10.390;2023-03-16T10:17:55;101117.38;;;15.67;100.00
59608;BME280;45426;44.726;10.390;2023-03-16T10:20:24;101105.72;;;15.98;100.00
59608;BME280;45426;44.726;10.390;2023-03-16T10:22:52;101105.13;;;16.05;100.00
59608;BME280;45426;44.726;10.390;2023-03-16T10:25:30;101104.59;;;17.18;100.00
59608;BME280;45426;44.726;10.390;2023-03-16T10:27:59;101108.34;;;16.74;100.00
59608;BME280;45426;44.726;10.390;2023-03-16T10:30:30;101107.13;;;17.46;100.00
59608;BME280;45426;44.726;10.390;2023-03-16T10:33:12;101101.69;;;17.11;100.00
59608;BME280;45426;44.726;10.390;2023-03-16T10:35:47;101107.84;;;16.53;100.00
59608;BME280;45426;44.726;10.390;2023-03-16T10:38:45;101099.47;;;16.97;100.00
59608;BME280;45426;44.726;10.390;2023-03-16T10:43:44;101102.25;;;14.88;100.00
59608;BME280;45426;44.726;10.390;2023-03-16T10:46:10;101098.97;;;15.80;100.00
59608;BME280;45426;44.726;10.390;2023-03-16T10:48:36;101103.69;;;15.10;100.00
59608;BME280;45426;44.726;10.390;2023-03-16T10:51:06;101103.59;;;15.91;100.00
59608;BME280;45426;44.726;10.390;2023-03-16T10:53:34;101100.16;;;16.42;100.00
59608;BME280;45426;44.726;10.390;2023-03-16T10:56:08;101086.06;;;17.54;100.00
59608;BME280;45426;44.726;10.390;2023-03-16T10:58:40;101107.06;;;15.60;100.00
59608;BME280;45426;44.726;10.390;2023-03-16T11:01:26;101101.38;;;16.29;100.00
59608;BME280;45426;44.726;10.390;2023-03-16T11:03:55;101092.72;;;15.79;100.00
59608;BME280;45426;44.726;10.390;2023-03-16T11:06:28;101074.97;;;16.72;100.00
59608;BME280;45426;44.726;10.390;2023-03-16T11:09:05;101089.72;;;15.56;100.00
59608;BME280;45426;44.726;10.390;2023-03-16T11:11:36;101084.69;;;15.58;100.00
59608;BME280;45426;44.726;10.390;2023-03-16T11:14:08;101100.75;;;15.03;100.00
59608;BME280;45426;44.726;10.390;2023-03-16T11:16:41;101075.25;;;15.71;96.48
59608;BME280;45426;44.726;10.390;2023-03-16T11:19:36;101082.31;;;15.72;100.00
59608;BME280;45426;44.726;10.390;2023-03-16T11:22:31;101072.16;;;17.04;100.00
59608;BME280;45426;44.726;10.390;2023-03-16T11:30:27;101079.13;;;16.15;75.26
59608;BME280;45426;44.726;10.390;2023-03-16T11:32:53;101073.09;;;15.77;77.18
59608;BME280;45426;44.726;10.390;2023-03-16T11:35:45;101061.97;;;17.43;94.98
59608;BME280;45426;44.726;10.390;2023-03-16T11:38:16;101059.88;;;17.17;100.00
59608;BME280;45426;44.726;10.390;2023-03-16T11:43:42;101059.84;;;17.56;95.77
59608;BME280;45426;44.726;10.390;2023-03-16T11:48:43;101053.72;;;16.85;84.64
59608;BME280;45426;44.726;10.390;2023-03-16T11:51:44;101051.31;;;15.68;67.63
59608;BME280;45426;44.726;10.390;2023-03-16T11:57:13;101045.03;;;15.68;66.26
59608;BME280;45426;44.726;10.390;2023-03-16T12:10:58;101031.91;;;16.92;63.31
59608;BME280;45426;44.726;10.390;2023-03-16T12:16:18;101030.03;;;15.62;69.12
59608;BME280;45426;44.726;10.390;2023-03-16T12:18:53;101027.75;;;15.96;69.28
59608;BME280;45426;44.726;10.390;2023-03-16T12:21:21;101037.69;;;15.56;80.85
59608;BME280;45426;44.726;10.390;2023-03-16T12:23:56;101028.91;;;15.95;79.48
59608;BME280;45426;44.726;10.390;2023-03-16T12:26:25;101018.88;;;16.69;85.85
59608;BME280;45426;44.726;10.390;2023-03-16T12:28:55;101022.84;;;16.72;83.77
59608;BME280;45426;44.726;10.390;2023-03-16T12:31:44;101032.63;;;17.08;76.86
59608;BME280;45426;44.726;10.390;2023-03-16T12:34:28;101012.50;;;16.46;76.58
59608;BME280;45426;44.726;10.390;2023-03-16T12:45:32;101012.03;;;15.77;73.89
59608;BME280;45426;44.726;10.390;2023-03-16T12:48:12;101004.75;;;16.00;64.11
59608;BME280;45426;44.726;10.390;2023-03-16T12:50:55;101003.03;;;16.98;71.08
59608;BME280;45426;44.726;10.390;2023-03-16T12:53:27;100992.94;;;17.68;86.25
59608;BME280;45426;44.726;10.390;2023-03-16T12:55:53;100994.56;;;17.26;80.10
59608;BME280;45426;44.726;10.390;2023-03-16T12:58:22;100984.13;;;17.36;88.06
59608;BME280;45426;44.726;10.390;2023-03-16T13:00:56;100984.72;;;17.25;72.42
59608;BME280;45426;44.726;10.390;2023-03-16T13:03:24;100983.38;;;16.41;64.86
59608;BME280;45426;44.726;10.390;2023-03-16T13:05:52;100989.28;;;16.79;72.18
59608;BME280;45426;44.726;10.390;2023-03-16T13:08:19;100980.22;;;17.37;82.92
59608;BME280;45426;44.726;10.390;2023-03-16T13:11:06;100983.44;;;16.61;66.26
59608;BME280;45426;44.726;10.390;2023-03-16T13:13:34;100994.41;;;16.61;64.80
59608;BME280;45426;44.726;10.390;2023-03-16T13:16:24;100992.41;;;16.97;75.32
59608;BME280;45426;44.726;10.390;2023-03-16T13:18:51;100994.50;;;17.03;95.08
59608;BME280;45426;44.726;10.390;2023-03-16T13:21:33;100987.06;;;17.04;73.25
59608;BME280;45426;44.726;10.390;2023-03-16T13:24:21;100979.34;;;17.33;80.92
59608;BME280;45426;44.726;10.390;2023-03-16T13:26:52;100978.38;;;17.02;82.31
59608;BME280;45426;44.726;10.390;2023-03-16T13:29:26;100971.47;;;17.08;86.36
59608;BME280;45426;44.726;10.390;2023-03-16T13:31:54;100979.84;;;17.15;99.29
59608;BME280;45426;44.726;10.390;2023-03-16T13:34:30;100971.31;;;17.01;74.16
59608;BME280;45426;44.726;10.390;2023-03-16T13:36:57;100967.31;;;17.18;82.30
59608;BME280;45426;44.726;10.390;2023-03-16T13:39:29;100962.41;;;17.07;85.22